Time,TemperatureF,DewpointF,PressureIn,WindDirection,WindDirectionDegrees,WindSpeedMPH,WindSpeedGustMPH,Humidity,HourlyPrecipIn,Conditions,Clouds,dailyrainin,SoftwareType,DateUTC
2014-01-03 00:00:00,3.4,-0.3,30.22,NE,41,5.0,6.0,84,0.00,,---,0.00,VWS V13.01,2014-01-03 05:00:00,
2014-01-03 00:01:00,3.4,-0.3,30.22,NE,41,0.0,6.0,84,0.00,,---,0.00,VWS V13.01,2014-01-03 05:01:00,
2014-01-03 00:02:00,3.3,-0.4,30.22,NE,41,1.0,6.0,84,0.00,,---,0.00,VWS V13.01,2014-01-03 05:02:00,
2014-01-03 00:03:00,3.4,-0.3,30.22,NE,41,1.0,6.0,84,0.00,,---,0.00,VWS V13.01,2014-01-03 05:03:00,
2014-01-03 00:07:00,3.3,-0.4,30.22,NE,41,3.0,6.0,84,0.00,,---,0.00,VWS V13.01,2014-01-03 05:07:00,
2014-01-03 00:08:00,3.3,-0.4,30.22,NE,41,4.0,6.0,84,0.00,,---,0.00,VWS V13.01,2014-01-03 05:08:00,
2014-01-03 00:13:00,3.2,-0.5,30.22,NNW,329,11.0,11.0,84,0.00,,---,0.00,VWS V13.01,2014-01-03 05:13:00,
2014-01-03 00:18:00,3.2,-0.5,30.23,NNW,340,1.0,12.0,84,0.00,,---,0.00,VWS V13.01,2014-01-03 05:18:00,
2014-01-03 00:23:00,3.2,-0.5,30.23,North,355,6.0,12.0,84,0.00,,---,0.00,VWS V13.01,2014-01-03 05:23:00,
2014-01-03 00:28:00,3.2,-0.5,30.24,NNE,23,8.0,12.0,84,0.00,,---,0.00,VWS V13.01,2014-01-03 05:28:00,
2014-01-03 00:33:00,3.2,-0.5,30.24,NE,51,8.0,18.0,84,0.00,,---,0.00,VWS V13.01,2014-01-03 05:33:00,
2014-01-03 00:38:00,3.1,-0.6,30.24,ENE,65,8.0,18.0,84,0.00,,---,0.00,VWS V13.01,2014-01-03 05:38:00,
2014-01-03 00:43:00,3.1,-0.6,30.24,NE,53,5.0,18.0,84,0.00,,---,0.00,VWS V13.01,2014-01-03 05:43:00,
2014-01-03 00:48:00,3.1,-0.6,30.24,NNE,19,4.0,18.0,84,0.00,,---,0.00,VWS V13.01,2014-01-03 05:48:00,
2014-01-03 00:53:00,3.0,-0.7,30.25,NNE,33,0.0,18.0,84,0.00,,---,0.00,VWS V13.01,2014-01-03 05:53:00,
2014-01-03 00:58:00,3.0,-0.7,30.25,East,101,10.0,18.0,84,0.00,,---,0.00,VWS V13.01,2014-01-03 05:58:00,
2014-01-03 01:03:00,3.0,-0.7,30.25,ENE,65,4.0,10.0,84,0.00,,---,0.00,VWS V13.01,2014-01-03 06:03:00,
2014-01-03 01:08:00,3.0,-0.7,30.25,ENE,65,4.0,10.0,84,0.00,,---,0.00,VWS V13.01,2014-01-03 06:08:00,
2014-01-03 01:13:00,3.0,-0.7,30.25,ENE,68,2.0,10.0,84,0.00,,---,0.00,VWS V13.01,2014-01-03 06:13:00,
2014-01-03 01:18:00,2.9,-0.8,30.26,ENE,67,0.0,10.0,84,0.00,,---,0.00,VWS V13.01,2014-01-03 06:18:00,
2014-01-03 01:23:00,2.9,-0.8,30.26,ENE,67,2.0,10.0,84,0.00,,---,0.00,VWS V13.01,2014-01-03 06:23:00,
2014-01-03 01:28:00,2.9,-0.8,30.27,ENE,64,1.0,10.0,84,0.00,,---,0.00,VWS V13.01,2014-01-03 06:28:00,
2014-01-03 01:33:00,2.9,-0.8,30.26,ENE,63,4.0,6.0,84,0.00,,---,0.00,VWS V13.01,2014-01-03 06:33:00,
2014-01-03 01:39:00,2.9,-0.6,30.27,ENE,61,2.0,7.0,85,0.00,,---,0.00,VWS V13.01,2014-01-03 06:39:00,
2014-01-03 01:44:00,2.9,-0.6,30.28,NE,40,1.0,9.0,85,0.00,,---,0.00,VWS V13.01,2014-01-03 06:44:00,
2014-01-03 01:49:00,3.0,-0.5,30.28,NE,40,0.0,9.0,85,0.00,,---,0.00,VWS V13.01,2014-01-03 06:49:00,
2014-01-03 01:54:00,3.0,-0.5,30.29,NE,44,3.0,9.0,85,0.00,,---,0.00,VWS V13.01,2014-01-03 06:54:00,
2014-01-03 01:59:00,3.0,-0.5,30.30,ENE,59,1.0,9.0,85,0.00,,---,0.00,VWS V13.01,2014-01-03 06:59:00,
2014-01-03 02:04:00,3.0,-0.5,30.30,ENE,59,0.0,5.0,85,0.00,,---,0.00,VWS V13.01,2014-01-03 07:04:00,
2014-01-03 02:09:00,3.0,-0.5,30.31,ENE,59,0.0,5.0,85,0.00,,---,0.00,VWS V13.01,2014-01-03 07:09:00,
2014-01-03 02:14:00,3.0,-0.5,30.30,NE,56,0.0,9.0,85,0.00,,---,0.00,VWS V13.01,2014-01-03 07:14:00,
2014-01-03 02:19:00,3.1,-0.4,30.30,ENE,65,0.0,9.0,85,0.00,,---,0.00,VWS V13.01,2014-01-03 07:19:00,
2014-01-03 02:24:00,3.0,-0.5,30.31,ENE,64,4.0,9.0,85,0.00,,---,0.00,VWS V13.01,2014-01-03 07:24:00,
2014-01-03 02:29:00,3.0,-0.7,30.31,ENE,62,3.0,9.0,84,0.00,,---,0.00,VWS V13.01,2014-01-03 07:29:00,
2014-01-03 02:34:00,3.0,-0.7,30.32,ENE,64,2.0,8.0,84,0.00,,---,0.00,VWS V13.01,2014-01-03 07:34:00,
2014-01-03 02:39:00,3.0,-0.7,30.32,ENE,64,0.0,8.0,84,0.00,,---,0.00,VWS V13.01,2014-01-03 07:39:00,
2014-01-03 02:44:00,3.0,-0.7,30.33,ENE,64,0.0,8.0,84,0.00,,---,0.00,VWS V13.01,2014-01-03 07:44:00,
2014-01-03 02:49:00,3.0,-0.7,30.33,ENE,64,0.0,8.0,84,0.00,,---,0.00,VWS V13.01,2014-01-03 07:49:00,
2014-01-03 02:54:00,3.0,-0.7,30.34,ENE,64,2.0,8.0,84,0.00,,---,0.00,VWS V13.01,2014-01-03 07:54:00,
2014-01-03 02:59:00,2.9,-0.8,30.34,ENE,64,0.0,8.0,84,0.00,,---,0.00,VWS V13.01,2014-01-03 07:59:00,
2014-01-03 03:04:00,2.9,-0.8,30.34,ENE,64,0.0,5.0,84,0.00,,---,0.00,VWS V13.01,2014-01-03 08:04:00,
2014-01-03 03:09:00,2.9,-0.8,30.35,ENE,64,1.0,5.0,84,0.00,,---,0.00,VWS V13.01,2014-01-03 08:09:00,
2014-01-03 03:15:00,2.9,-0.6,30.35,ENE,64,1.0,5.0,85,0.00,,---,0.00,VWS V13.01,2014-01-03 08:15:00,
2014-01-03 03:20:00,2.9,-0.8,30.35,ENE,64,1.0,5.0,84,0.00,,---,0.00,VWS V13.01,2014-01-03 08:20:00,
2014-01-03 03:25:00,2.9,-0.6,30.35,ENE,64,1.0,5.0,85,0.00,,---,0.00,VWS V13.01,2014-01-03 08:25:00,
2014-01-03 03:30:00,2.9,-0.6,30.35,ENE,64,0.0,0.0,85,0.00,,---,0.00,VWS V13.01,2014-01-03 08:30:00,
2014-01-03 03:35:00,3.0,-0.5,30.35,ENE,64,0.0,2.0,85,0.00,,---,0.00,VWS V13.01,2014-01-03 08:35:00,
2014-01-03 03:40:00,3.1,-0.4,30.35,ENE,64,0.0,2.0,85,0.00,,---,0.00,VWS V13.01,2014-01-03 08:40:00,
2014-01-03 03:45:00,3.2,-0.3,30.35,ENE,65,0.0,4.0,85,0.00,,---,0.00,VWS V13.01,2014-01-03 08:45:00,
2014-01-03 03:50:00,3.2,-0.3,30.35,ENE,65,0.0,4.0,85,0.00,,---,0.00,VWS V13.01,2014-01-03 08:50:00,
2014-01-03 03:55:00,3.3,-0.2,30.36,NE,55,5.0,8.0,85,0.00,,---,0.00,VWS V13.01,2014-01-03 08:55:00,
2014-01-03 04:00:00,3.6,0.1,30.36,NE,38,3.0,6.0,85,0.00,,---,0.00,VWS V13.01,2014-01-03 09:00:00,
2014-01-03 04:05:00,3.7,0.2,30.36,ESE,112,1.0,9.0,85,0.00,,---,0.00,VWS V13.01,2014-01-03 09:05:00,
2014-01-03 04:10:00,3.7,0.0,30.37,ESE,112,4.0,9.0,84,0.00,,---,0.00,VWS V13.01,2014-01-03 09:10:00,
2014-01-03 04:15:00,3.7,0.2,30.37,ESE,111,1.0,9.0,85,0.00,,---,0.00,VWS V13.01,2014-01-03 09:15:00,
2014-01-03 04:20:00,3.7,0.0,30.37,ESE,107,2.0,9.0,84,0.00,,---,0.00,VWS V13.01,2014-01-03 09:20:00,
2014-01-03 04:25:00,3.6,0.1,30.37,East,94,0.0,9.0,85,0.00,,---,0.00,VWS V13.01,2014-01-03 09:25:00,
2014-01-03 04:30:00,3.6,0.1,30.38,East,94,1.0,4.0,85,0.00,,---,0.00,VWS V13.01,2014-01-03 09:30:00,
2014-01-03 04:35:00,3.6,0.1,30.38,East,94,3.0,5.0,85,0.00,,---,0.00,VWS V13.01,2014-01-03 09:35:00,
2014-01-03 04:40:00,3.7,0.2,30.39,East,94,2.0,6.0,85,0.00,,---,0.00,VWS V13.01,2014-01-03 09:40:00,
2014-01-03 04:46:00,3.6,-0.1,30.40,NNW,334,8.0,9.0,84,0.00,,---,0.00,VWS V13.01,2014-01-03 09:46:00,
2014-01-03 04:51:00,3.5,-0.5,30.40,WNW,284,5.0,13.0,83,0.00,,---,0.00,VWS V13.01,2014-01-03 09:51:00,
2014-01-03 04:56:00,3.3,-0.4,30.40,West,278,8.0,14.0,84,0.00,,---,0.00,VWS V13.01,2014-01-03 09:56:00,
2014-01-03 05:01:00,3.1,-0.9,30.42,WNW,288,4.0,8.0,83,0.00,,---,0.00,VWS V13.01,2014-01-03 10:01:00,
2014-01-03 05:06:00,3.0,-1.0,30.42,WNW,295,0.0,13.0,83,0.00,,---,0.00,VWS V13.01,2014-01-03 10:06:00,
2014-01-03 05:11:00,2.9,-1.1,30.42,WNW,296,4.0,13.0,83,0.00,,---,0.00,VWS V13.01,2014-01-03 10:11:00,
2014-01-03 05:16:00,2.9,-0.8,30.42,WNW,296,2.0,13.0,84,0.00,,---,0.00,VWS V13.01,2014-01-03 10:16:00,
2014-01-03 05:21:00,2.9,-0.8,30.43,WNW,296,5.0,13.0,84,0.00,,---,0.00,VWS V13.01,2014-01-03 10:21:00,
2014-01-03 05:26:00,2.8,-0.9,30.42,WNW,296,0.0,13.0,84,0.00,,---,0.00,VWS V13.01,2014-01-03 10:26:00,
2014-01-03 05:31:00,2.8,-0.9,30.43,WNW,296,0.0,0.0,84,0.00,,---,0.00,VWS V13.01,2014-01-03 10:31:00,
2014-01-03 05:36:00,2.6,-1.1,30.43,WNW,296,0.0,2.0,84,0.00,,---,0.00,VWS V13.01,2014-01-03 10:36:00,
2014-01-03 05:41:00,2.6,-1.4,30.44,WNW,296,5.0,8.0,83,0.00,,---,0.00,VWS V13.01,2014-01-03 10:41:00,
2014-01-03 05:46:00,2.6,-1.4,30.44,WNW,296,2.0,8.0,83,0.00,,---,0.00,VWS V13.01,2014-01-03 10:46:00,
2014-01-03 05:51:00,2.4,-1.6,30.44,WNW,294,8.0,9.0,83,0.00,,---,0.00,VWS V13.01,2014-01-03 10:51:00,
2014-01-03 05:56:00,2.4,-1.6,30.45,WNW,295,5.0,9.0,83,0.00,,---,0.00,VWS V13.01,2014-01-03 10:56:00,
2014-01-03 06:01:00,2.3,-1.7,30.45,WNW,294,3.0,5.0,83,0.00,,---,0.00,VWS V13.01,2014-01-03 11:01:00,
2014-01-03 06:06:00,2.0,-2.0,30.47,WNW,295,6.0,9.0,83,0.00,,---,0.00,VWS V13.01,2014-01-03 11:06:00,
2014-01-03 06:12:00,1.9,-2.3,30.47,WNW,286,5.0,11.0,82,0.00,,---,0.00,VWS V13.01,2014-01-03 11:12:00,
2014-01-03 06:17:00,1.9,-2.3,30.47,WNW,286,0.0,11.0,82,0.00,,---,0.00,VWS V13.01,2014-01-03 11:17:00,
2014-01-03 06:22:00,1.7,-2.5,30.48,WNW,286,6.0,11.0,82,0.00,,---,0.00,VWS V13.01,2014-01-03 11:22:00,
2014-01-03 06:27:00,1.7,-2.5,30.48,WNW,284,7.0,11.0,82,0.00,,---,0.00,VWS V13.01,2014-01-03 11:27:00,
2014-01-03 06:32:00,1.6,-2.6,30.49,WNW,283,5.0,10.0,82,0.00,,---,0.00,VWS V13.01,2014-01-03 11:32:00,
2014-01-03 06:37:00,1.5,-2.7,30.49,West,281,7.0,10.0,82,0.00,,---,0.00,VWS V13.01,2014-01-03 11:37:00,
2014-01-03 06:42:00,1.2,-3.0,30.50,West,277,2.0,10.0,82,0.00,,---,0.00,VWS V13.01,2014-01-03 11:42:00,
2014-01-03 06:47:00,1.0,-3.2,30.50,West,277,6.0,10.0,82,0.00,,---,0.00,VWS V13.01,2014-01-03 11:47:00,
2014-01-03 06:52:00,0.8,-3.4,30.50,West,277,4.0,10.0,82,0.00,,---,0.00,VWS V13.01,2014-01-03 11:52:00,
2014-01-03 06:57:00,0.6,-3.6,30.51,West,277,4.0,10.0,82,0.00,,---,0.00,VWS V13.01,2014-01-03 11:57:00,
2014-01-03 07:02:00,0.4,-3.8,30.52,West,276,7.0,7.0,82,0.00,,---,0.00,VWS V13.01,2014-01-03 12:02:00,
2014-01-03 07:07:00,0.2,-4.0,30.52,West,277,5.0,7.0,82,0.00,,---,0.00,VWS V13.01,2014-01-03 12:07:00,
2014-01-03 07:12:00,0.1,-4.2,30.52,West,277,1.0,7.0,82,0.00,,---,0.00,VWS V13.01,2014-01-03 12:12:00,
2014-01-03 07:17:00,-0.2,-4.4,30.52,West,277,2.0,7.0,82,0.00,,---,0.00,VWS V13.01,2014-01-03 12:17:00,
2014-01-03 07:22:00,-0.5,-4.4,30.53,West,277,4.0,7.0,83,0.00,,---,0.00,VWS V13.01,2014-01-03 12:22:00,
2014-01-03 07:27:00,-0.7,-4.9,30.53,West,277,0.0,7.0,82,0.00,,---,0.00,VWS V13.01,2014-01-03 12:27:00,
2014-01-03 07:32:00,-0.8,-4.7,30.53,West,277,0.0,1.0,83,0.00,,---,0.00,VWS V13.01,2014-01-03 12:32:00,
2014-01-03 07:38:00,-1.1,-5.3,30.54,West,277,0.0,2.0,82,0.00,,---,0.00,VWS V13.01,2014-01-03 12:38:00,
2014-01-03 07:43:00,-1.1,-5.3,30.54,West,277,4.0,5.0,82,0.00,,---,0.00,VWS V13.01,2014-01-03 12:43:00,
2014-01-03 07:48:00,-1.3,-5.2,30.55,West,277,1.0,5.0,83,0.00,,---,0.00,VWS V13.01,2014-01-03 12:48:00,
2014-01-03 07:53:00,-1.4,-5.3,30.56,West,277,0.0,5.0,83,0.00,,---,0.00,VWS V13.01,2014-01-03 12:53:00,
2014-01-03 07:58:00,-1.7,-5.6,30.56,West,277,1.0,5.0,83,0.00,,---,0.00,VWS V13.01,2014-01-03 12:58:00,
2014-01-03 08:03:00,-1.7,-5.3,30.56,West,277,1.0,2.0,84,0.00,,---,0.00,VWS V13.01,2014-01-03 13:03:00,
2014-01-03 08:08:00,-1.9,-5.5,30.57,West,277,0.0,2.0,84,0.00,,---,0.00,VWS V13.01,2014-01-03 13:08:00,
2014-01-03 08:13:00,-2.2,-6.1,30.58,West,277,3.0,5.0,83,0.00,,---,0.00,VWS V13.01,2014-01-03 13:13:00,
2014-01-03 08:18:00,-2.6,-6.7,30.59,West,277,4.0,5.0,82,0.00,,---,0.00,VWS V13.01,2014-01-03 13:18:00,
2014-01-03 08:23:00,-2.8,-6.4,30.59,West,277,1.0,6.0,84,0.00,,---,0.00,VWS V13.01,2014-01-03 13:23:00,
2014-01-03 08:28:00,-2.1,-5.5,30.59,West,277,2.0,6.0,85,0.00,,---,0.00,VWS V13.01,2014-01-03 13:28:00,
2014-01-03 08:33:00,-1.8,-5.4,30.59,West,277,0.0,3.0,84,0.00,,---,0.00,VWS V13.01,2014-01-03 13:33:00,
2014-01-03 08:38:00,-1.4,-5.1,30.59,West,277,4.0,5.0,84,0.00,,---,0.00,VWS V13.01,2014-01-03 13:38:00,
2014-01-03 08:43:00,-1.2,-4.8,30.60,West,277,0.0,5.0,84,0.00,,---,0.00,VWS V13.01,2014-01-03 13:43:00,
2014-01-03 08:48:00,-1.7,-5.8,30.60,West,277,4.0,5.0,82,0.00,,---,0.00,VWS V13.01,2014-01-03 13:48:00,
2014-01-03 08:53:00,-1.8,-5.7,30.60,West,277,4.0,6.0,83,0.00,,---,0.00,VWS V13.01,2014-01-03 13:53:00,
2014-01-03 08:58:00,-1.6,-5.5,30.61,West,277,5.0,7.0,83,0.00,,---,0.00,VWS V13.01,2014-01-03 13:58:00,
2014-01-03 09:04:00,-1.4,-5.6,30.62,West,277,2.0,8.0,82,0.00,,---,0.00,VWS V13.01,2014-01-03 14:04:00,
2014-01-03 09:09:00,-1.5,-5.7,30.62,West,276,9.0,9.0,82,0.00,,---,0.00,VWS V13.01,2014-01-03 14:09:00,
2014-01-03 09:14:00,-1.0,-5.2,30.62,West,277,4.0,9.0,82,0.00,,---,0.00,VWS V13.01,2014-01-03 14:14:00,
2014-01-03 09:19:00,-1.2,-5.3,30.62,West,276,1.0,9.0,82,0.00,,---,0.00,VWS V13.01,2014-01-03 14:19:00,
2014-01-03 09:24:00,-0.9,-5.1,30.62,West,273,6.0,10.0,82,0.00,,---,0.00,VWS V13.01,2014-01-03 14:24:00,
2014-01-03 09:29:00,-0.7,-4.9,30.62,West,275,5.0,10.0,82,0.00,,---,0.00,VWS V13.01,2014-01-03 14:29:00,
2014-01-03 09:34:00,-0.1,-4.5,30.63,WSW,253,7.0,12.0,81,0.00,,---,0.00,VWS V13.01,2014-01-03 14:34:00,
2014-01-03 09:39:00,0.5,-3.9,30.63,WNW,302,5.0,12.0,81,0.00,,---,0.00,VWS V13.01,2014-01-03 14:39:00,
2014-01-03 09:44:00,1.0,-3.7,30.63,WNW,292,6.0,12.0,80,0.00,,---,0.00,VWS V13.01,2014-01-03 14:44:00,
2014-01-03 09:49:00,1.4,-3.3,30.64,WNW,300,4.0,12.0,80,0.00,,---,0.00,VWS V13.01,2014-01-03 14:49:00,
2014-01-03 09:54:00,1.7,-3.3,30.64,WNW,298,6.0,12.0,79,0.00,,---,0.00,VWS V13.01,2014-01-03 14:54:00,
2014-01-03 09:59:00,2.0,-3.0,30.65,WNW,296,1.0,12.0,79,0.00,,---,0.00,VWS V13.01,2014-01-03 14:59:00,
2014-01-03 10:04:00,2.1,-3.2,30.65,WNW,294,2.0,11.0,78,0.00,,---,0.00,VWS V13.01,2014-01-03 15:04:00,
2014-01-03 10:09:00,2.4,-2.9,30.65,NW,307,4.0,11.0,78,0.00,,---,0.00,VWS V13.01,2014-01-03 15:09:00,
2014-01-03 10:14:00,2.8,-2.2,30.65,NW,310,0.0,11.0,79,0.00,,---,0.00,VWS V13.01,2014-01-03 15:14:00,
2014-01-03 10:19:00,2.8,-2.5,30.65,NNW,344,2.0,11.0,78,0.00,,---,0.00,VWS V13.01,2014-01-03 15:19:00,
2014-01-03 10:24:00,2.6,-3.2,30.66,WNW,292,7.0,11.0,76,0.00,,---,0.00,VWS V13.01,2014-01-03 15:24:00,
2014-01-03 10:29:00,2.6,-3.2,30.66,WNW,289,3.0,11.0,76,0.00,,---,0.00,VWS V13.01,2014-01-03 15:29:00,
2014-01-03 10:35:00,2.8,-2.8,30.65,WNW,294,5.0,10.0,77,0.00,,---,0.00,VWS V13.01,2014-01-03 15:35:00,
2014-01-03 10:40:00,2.8,-2.8,30.66,WNW,296,6.0,10.0,77,0.00,,---,0.00,VWS V13.01,2014-01-03 15:40:00,
2014-01-03 10:45:00,3.3,-2.0,30.66,WNW,297,2.0,10.0,78,0.00,,---,0.00,VWS V13.01,2014-01-03 15:45:00,
2014-01-03 10:50:00,3.2,-2.4,30.66,WNW,294,5.0,10.0,77,0.00,,---,0.00,VWS V13.01,2014-01-03 15:50:00,
2014-01-03 10:55:00,3.6,-2.0,30.66,WNW,296,2.0,10.0,77,0.00,,---,0.00,VWS V13.01,2014-01-03 15:55:00,
2014-01-03 11:00:00,3.7,-2.4,30.66,WNW,296,4.0,5.0,75,0.00,,---,0.00,VWS V13.01,2014-01-03 16:00:00,
2014-01-03 11:05:00,3.7,-2.2,30.67,WNW,292,7.0,10.0,76,0.00,,---,0.00,VWS V13.01,2014-01-03 16:05:00,
2014-01-03 11:10:00,3.8,-2.6,30.67,WNW,282,9.0,13.0,74,0.00,,---,0.00,VWS V13.01,2014-01-03 16:10:00,
2014-01-03 11:15:00,4.0,-2.4,30.67,WNW,287,8.0,13.0,74,0.00,,---,0.00,VWS V13.01,2014-01-03 16:15:00,
2014-01-03 11:20:00,4.2,-2.2,30.67,WNW,288,6.0,13.0,74,0.00,,---,0.00,VWS V13.01,2014-01-03 16:20:00,
2014-01-03 11:25:00,4.6,-1.9,30.67,WNW,288,10.0,13.0,74,0.00,,---,0.00,VWS V13.01,2014-01-03 16:25:00,
2014-01-03 11:30:00,4.7,-2.3,30.67,WNW,299,5.0,8.0,72,0.00,,---,0.00,VWS V13.01,2014-01-03 16:30:00,
2014-01-03 11:35:00,5.0,-2.0,30.67,WNW,298,7.0,9.0,72,0.00,,---,0.00,VWS V13.01,2014-01-03 16:35:00,
2014-01-03 11:40:00,5.1,-2.2,30.68,WNW,299,8.0,12.0,71,0.00,,---,0.00,VWS V13.01,2014-01-03 16:40:00,
2014-01-03 11:45:00,5.3,-1.8,30.67,WNW,300,0.0,12.0,72,0.00,,---,0.00,VWS V13.01,2014-01-03 16:45:00,
2014-01-03 11:50:00,5.8,-1.6,30.67,WNW,299,2.0,12.0,71,0.00,,---,0.00,VWS V13.01,2014-01-03 16:50:00,
2014-01-03 11:55:00,5.9,-1.8,30.68,WNW,299,7.0,12.0,70,0.00,,---,0.00,VWS V13.01,2014-01-03 16:55:00,
2014-01-03 12:00:00,6.0,-2.0,30.68,WNW,295,8.0,9.0,69,0.00,,---,0.00,VWS V13.01,2014-01-03 17:00:00,
2014-01-03 12:06:00,6.1,-1.9,30.67,WNW,298,5.0,11.0,69,0.00,,---,0.00,VWS V13.01,2014-01-03 17:06:00,
2014-01-03 12:11:00,6.3,-2.0,30.67,WNW,296,6.0,11.0,68,0.00,,---,0.00,VWS V13.01,2014-01-03 17:11:00,
2014-01-03 12:16:00,6.3,-2.6,30.67,WNW,290,10.0,11.0,66,0.00,,---,0.00,VWS V13.01,2014-01-03 17:16:00,
2014-01-03 12:21:00,6.4,-2.2,30.67,WNW,295,6.0,11.0,67,0.00,,---,0.00,VWS V13.01,2014-01-03 17:21:00,
2014-01-03 12:26:00,6.7,-2.2,30.67,WNW,294,4.0,11.0,66,0.00,,---,0.00,VWS V13.01,2014-01-03 17:26:00,
2014-01-03 12:31:00,7.0,-2.6,30.67,WNW,299,5.0,9.0,64,0.00,,---,0.00,VWS V13.01,2014-01-03 17:31:00,
2014-01-03 12:36:00,7.3,-1.3,30.67,WNW,300,6.0,9.0,67,0.00,,---,0.00,VWS V13.01,2014-01-03 17:36:00,
2014-01-03 12:41:00,7.5,-1.8,30.67,WNW,288,10.0,11.0,65,0.00,,---,0.00,VWS V13.01,2014-01-03 17:41:00,
2014-01-03 12:46:00,7.4,-2.2,30.67,WNW,288,8.0,11.0,64,0.00,,---,0.00,VWS V13.01,2014-01-03 17:46:00,
2014-01-03 12:51:00,7.4,-1.9,30.67,WNW,287,6.0,11.0,65,0.00,,---,0.00,VWS V13.01,2014-01-03 17:51:00,
2014-01-03 12:56:00,7.7,-1.6,30.67,WNW,290,3.0,11.0,65,0.00,,---,0.00,VWS V13.01,2014-01-03 17:56:00,
2014-01-03 13:01:00,7.7,-1.6,30.67,West,279,11.0,11.0,65,0.00,,---,0.00,VWS V13.01,2014-01-03 18:01:00,
2014-01-03 13:06:00,7.6,-2.0,30.67,West,277,8.0,11.0,64,0.00,,---,0.00,VWS V13.01,2014-01-03 18:06:00,
2014-01-03 13:11:00,7.8,-1.8,30.68,West,270,9.0,14.0,64,0.00,,---,0.00,VWS V13.01,2014-01-03 18:11:00,
2014-01-03 13:16:00,7.8,-2.2,30.68,West,273,8.0,14.0,63,0.00,,---,0.00,VWS V13.01,2014-01-03 18:16:00,
2014-01-03 13:21:00,8.1,-1.9,30.67,WNW,283,6.0,14.0,63,0.00,,---,0.00,VWS V13.01,2014-01-03 18:21:00,
2014-01-03 13:26:00,8.0,-2.3,30.68,WNW,284,8.0,14.0,62,0.00,,---,0.00,VWS V13.01,2014-01-03 18:26:00,
2014-01-03 13:32:00,8.2,-2.1,30.68,WNW,289,1.0,8.0,62,0.00,,---,0.00,VWS V13.01,2014-01-03 18:32:00,
2014-01-03 13:37:00,8.6,-1.4,30.68,WNW,287,9.0,10.0,63,0.00,,---,0.00,VWS V13.01,2014-01-03 18:37:00,
2014-01-03 13:42:00,8.3,-2.0,30.68,West,273,12.0,14.0,62,0.00,,---,0.00,VWS V13.01,2014-01-03 18:42:00,
2014-01-03 13:47:00,8.1,-2.5,30.68,West,272,10.0,14.0,61,0.00,,---,0.00,VWS V13.01,2014-01-03 18:47:00,
2014-01-03 13:52:00,8.4,-1.9,30.68,West,267,7.0,14.0,62,0.00,,---,0.00,VWS V13.01,2014-01-03 18:52:00,
2014-01-03 13:57:00,8.7,-1.3,30.68,West,279,8.0,14.0,63,0.00,,---,0.00,VWS V13.01,2014-01-03 18:57:00,
2014-01-03 14:02:00,8.9,-1.5,30.68,West,279,5.0,5.0,62,0.00,,---,0.00,VWS V13.01,2014-01-03 19:02:00,
2014-01-03 14:07:00,9.2,-1.2,30.68,West,281,1.0,8.0,62,0.00,,---,0.00,VWS V13.01,2014-01-03 19:07:00,
2014-01-03 14:12:00,9.5,-0.9,30.68,WNW,283,0.0,8.0,62,0.00,,---,0.00,VWS V13.01,2014-01-03 19:12:00,
2014-01-03 14:17:00,9.6,-1.1,30.67,WNW,283,6.0,8.0,61,0.00,,---,0.00,VWS V13.01,2014-01-03 19:17:00,
2014-01-03 14:22:00,9.5,-1.2,30.67,West,279,9.0,12.0,61,0.00,,---,0.00,VWS V13.01,2014-01-03 19:22:00,
2014-01-03 14:27:00,9.0,-1.7,30.68,West,276,7.0,12.0,61,0.00,,---,0.00,VWS V13.01,2014-01-03 19:27:00,
2014-01-03 14:32:00,9.0,-1.7,30.68,West,275,6.0,10.0,61,0.00,,---,0.00,VWS V13.01,2014-01-03 19:32:00,
2014-01-03 14:37:00,9.3,-1.8,30.67,West,281,6.0,10.0,60,0.00,,---,0.00,VWS V13.01,2014-01-03 19:37:00,
2014-01-03 14:42:00,9.3,-2.1,30.68,WNW,284,8.0,12.0,59,0.00,,---,0.00,VWS V13.01,2014-01-03 19:42:00,
2014-01-03 14:47:00,9.3,-1.4,30.68,WNW,289,8.0,12.0,61,0.00,,---,0.00,VWS V13.01,2014-01-03 19:47:00,
2014-01-03 14:52:00,9.4,-1.3,30.68,WNW,288,5.0,12.0,61,0.00,,---,0.00,VWS V13.01,2014-01-03 19:52:00,
2014-01-03 14:58:00,9.6,-1.5,30.69,WNW,288,4.0,12.0,60,0.00,,---,0.00,VWS V13.01,2014-01-03 19:58:00,
2014-01-03 15:03:00,9.6,-2.2,30.68,WNW,291,5.0,10.0,58,0.00,,---,0.00,VWS V13.01,2014-01-03 20:03:00,
2014-01-03 15:08:00,9.6,-2.6,30.69,WNW,299,6.0,13.0,57,0.00,,---,0.00,VWS V13.01,2014-01-03 20:08:00,
2014-01-03 15:13:00,9.8,-1.6,30.69,WNW,299,1.0,13.0,59,0.00,,---,0.00,VWS V13.01,2014-01-03 20:13:00,
2014-01-03 15:18:00,9.9,-1.9,30.69,WNW,298,4.0,13.0,58,0.00,,---,0.00,VWS V13.01,2014-01-03 20:18:00,
2014-01-03 15:23:00,9.9,-2.3,30.70,WNW,299,6.0,13.0,57,0.00,,---,0.00,VWS V13.01,2014-01-03 20:23:00,
2014-01-03 15:28:00,9.9,-2.3,30.70,WNW,299,5.0,13.0,57,0.00,,---,0.00,VWS V13.01,2014-01-03 20:28:00,
2014-01-03 15:33:00,9.7,-1.0,30.70,WNW,298,4.0,8.0,61,0.00,,---,0.00,VWS V13.01,2014-01-03 20:33:00,
2014-01-03 15:38:00,9.6,-1.8,30.71,WNW,298,4.0,8.0,59,0.00,,---,0.00,VWS V13.01,2014-01-03 20:38:00,
2014-01-03 15:43:00,9.6,-2.9,30.71,WNW,296,7.0,10.0,56,0.00,,---,0.00,VWS V13.01,2014-01-03 20:43:00,
2014-01-03 15:48:00,9.4,-3.1,30.71,WNW,294,6.0,10.0,56,0.00,,---,0.00,VWS V13.01,2014-01-03 20:48:00,
2014-01-03 15:53:00,9.2,-3.7,30.71,WNW,283,8.0,11.0,55,0.00,,---,0.00,VWS V13.01,2014-01-03 20:53:00,
2014-01-03 15:58:00,9.3,-3.2,30.72,WNW,283,8.0,11.0,56,0.00,,---,0.00,VWS V13.01,2014-01-03 20:58:00,
2014-01-03 16:03:00,9.1,-3.8,30.72,WNW,283,6.0,7.0,55,0.00,,---,0.00,VWS V13.01,2014-01-03 21:03:00,
2014-01-03 16:08:00,8.9,-3.2,30.71,WNW,286,4.0,9.0,57,0.00,,---,0.00,VWS V13.01,2014-01-03 21:08:00,
2014-01-03 16:13:00,8.3,-3.1,30.71,WNW,286,3.0,9.0,59,0.00,,---,0.00,VWS V13.01,2014-01-03 21:13:00,
2014-01-03 16:18:00,7.7,-2.9,30.71,WNW,286,4.0,9.0,61,0.00,,---,0.00,VWS V13.01,2014-01-03 21:18:00,
2014-01-03 16:23:00,7.4,-2.5,30.72,WNW,286,2.0,9.0,63,0.00,,---,0.00,VWS V13.01,2014-01-03 21:23:00,
2014-01-03 16:29:00,6.6,-1.1,30.72,WNW,286,2.0,9.0,70,0.00,,---,0.00,VWS V13.01,2014-01-03 21:29:00,
2014-01-03 16:34:00,6.3,-2.9,30.72,WNW,286,2.0,6.0,65,0.00,,---,0.00,VWS V13.01,2014-01-03 21:34:00,
2014-01-03 16:39:00,5.9,-1.8,30.72,WNW,286,2.0,6.0,70,0.00,,---,0.00,VWS V13.01,2014-01-03 21:39:00,
2014-01-03 16:44:00,5.7,-1.7,30.72,WNW,286,2.0,6.0,71,0.00,,---,0.00,VWS V13.01,2014-01-03 21:44:00,
2014-01-03 16:49:00,5.7,-1.4,30.73,WNW,286,1.0,6.0,72,0.00,,---,0.00,VWS V13.01,2014-01-03 21:49:00,
2014-01-03 16:54:00,5.5,-1.3,30.72,WNW,286,0.0,6.0,73,0.00,,---,0.00,VWS V13.01,2014-01-03 21:54:00,
2014-01-03 16:59:00,5.3,-1.5,30.73,WNW,286,1.0,6.0,73,0.00,,---,0.00,VWS V13.01,2014-01-03 21:59:00,
2014-01-03 17:04:00,5.3,-1.5,30.72,WNW,286,1.0,4.0,73,0.00,,---,0.00,VWS V13.01,2014-01-03 22:04:00,
2014-01-03 17:09:00,5.0,-1.5,30.72,WNW,286,1.0,4.0,74,0.00,,---,0.00,VWS V13.01,2014-01-03 22:09:00,
2014-01-03 17:14:00,4.5,-1.4,30.72,WNW,286,0.0,4.0,76,0.00,,---,0.00,VWS V13.01,2014-01-03 22:14:00,
2014-01-03 17:19:00,3.7,-2.4,30.72,WNW,286,0.0,4.0,75,0.00,,---,0.00,VWS V13.01,2014-01-03 22:19:00,
2014-01-03 17:24:00,3.3,-2.3,30.72,WNW,286,0.0,4.0,77,0.00,,---,0.00,VWS V13.01,2014-01-03 22:24:00,
2014-01-03 17:29:00,2.2,-4.2,30.72,WNW,286,0.0,4.0,74,0.00,,---,0.00,VWS V13.01,2014-01-03 22:29:00,
2014-01-03 17:34:00,1.2,-4.3,30.73,WNW,286,0.0,0.0,77,0.00,,---,0.00,VWS V13.01,2014-01-03 22:34:00,
2014-01-03 17:39:00,1.0,-3.7,30.73,WNW,286,2.0,2.0,80,0.00,,---,0.00,VWS V13.01,2014-01-03 22:39:00,
2014-01-03 17:44:00,1.0,-3.5,30.73,WNW,286,0.0,2.0,81,0.00,,---,0.00,VWS V13.01,2014-01-03 22:44:00,
2014-01-03 17:49:00,0.4,-4.6,30.74,WNW,286,1.0,2.0,79,0.00,,---,0.00,VWS V13.01,2014-01-03 22:49:00,
2014-01-03 17:54:00,0.2,-4.0,30.74,WNW,286,0.0,2.0,82,0.00,,---,0.00,VWS V13.01,2014-01-03 22:54:00,
2014-01-03 18:00:00,0.3,-3.9,30.74,WNW,286,0.0,0.0,82,0.00,,---,0.00,VWS V13.01,2014-01-03 23:00:00,
2014-01-03 18:05:00,-0.2,-4.6,30.75,WNW,286,0.0,0.0,81,0.00,,---,0.00,VWS V13.01,2014-01-03 23:05:00,
2014-01-03 18:10:00,-0.8,-5.2,30.75,WNW,286,0.0,0.0,81,0.00,,---,0.00,VWS V13.01,2014-01-03 23:10:00,
2014-01-03 18:15:00,-1.7,-6.1,30.75,WNW,286,0.0,0.0,81,0.00,,---,0.00,VWS V13.01,2014-01-03 23:15:00,
2014-01-03 18:20:00,-1.8,-5.7,30.75,WNW,286,1.0,2.0,83,0.00,,---,0.00,VWS V13.01,2014-01-03 23:20:00,
2014-01-03 18:25:00,-2.1,-6.0,30.74,WNW,286,0.0,2.0,83,0.00,,---,0.00,VWS V13.01,2014-01-03 23:25:00,
2014-01-03 18:30:00,-2.4,-6.0,30.75,WNW,286,0.0,0.0,84,0.00,,---,0.00,VWS V13.01,2014-01-03 23:30:00,
2014-01-03 18:35:00,-2.7,-6.3,30.75,WNW,286,0.0,0.0,84,0.00,,---,0.00,VWS V13.01,2014-01-03 23:35:00,
2014-01-03 18:40:00,-3.7,-7.3,30.75,WNW,286,0.0,0.0,84,0.00,,---,0.00,VWS V13.01,2014-01-03 23:40:00,
2014-01-03 18:45:00,-3.9,-7.3,30.75,WNW,286,0.0,0.0,85,0.00,,---,0.00,VWS V13.01,2014-01-03 23:45:00,
2014-01-03 18:50:00,-4.4,-7.8,30.75,WNW,286,0.0,0.0,85,0.00,,---,0.00,VWS V13.01,2014-01-03 23:50:00,
2014-01-03 18:55:00,-4.5,-7.8,30.76,WNW,286,0.0,2.0,85,0.00,,---,0.00,VWS V13.01,2014-01-03 23:55:00,
2014-01-03 19:00:00,-4.8,-8.1,30.76,WNW,286,0.0,0.0,85,0.00,,---,0.00,VWS V13.01,2014-01-04 00:00:00,
2014-01-03 19:05:00,-4.3,-7.2,30.75,WNW,286,0.0,0.0,87,0.00,,---,0.00,VWS V13.01,2014-01-04 00:05:00,
2014-01-03 19:10:00,-5.5,-9.1,30.76,WNW,286,0.0,0.0,84,0.00,,---,0.00,VWS V13.01,2014-01-04 00:10:00,
2014-01-03 19:16:00,-5.6,-8.7,30.75,WNW,286,0.0,0.0,86,0.00,,---,0.00,VWS V13.01,2014-01-04 00:16:00,
2014-01-03 19:18:00,-5.0,-7.9,30.75,WNW,286,0.0,0.0,87,0.00,,---,0.00,VWS V13.01,2014-01-04 00:18:00,
2014-01-03 19:23:00,-4.6,-7.5,30.75,WNW,286,0.0,0.0,87,0.00,,---,0.00,VWS V13.01,2014-01-04 00:23:00,
2014-01-03 19:28:00,-4.8,-7.7,30.75,WNW,286,0.0,0.0,87,0.00,,---,0.00,VWS V13.01,2014-01-04 00:28:00,
2014-01-03 19:33:00,-5.5,-8.8,30.75,WNW,286,0.0,0.0,85,0.00,,---,0.00,VWS V13.01,2014-01-04 00:33:00,
2014-01-03 19:38:00,-6.1,-9.7,30.75,WNW,286,0.0,0.0,84,0.00,,---,0.00,VWS V13.01,2014-01-04 00:38:00,
2014-01-03 19:43:00,-6.2,-9.5,30.75,WNW,286,0.0,0.0,85,0.00,,---,0.00,VWS V13.01,2014-01-04 00:43:00,
2014-01-03 19:48:00,-6.0,-9.1,30.75,WNW,286,0.0,0.0,86,0.00,,---,0.00,VWS V13.01,2014-01-04 00:48:00,
2014-01-03 19:53:00,-5.6,-8.5,30.75,WNW,286,0.0,0.0,87,0.00,,---,0.00,VWS V13.01,2014-01-04 00:53:00,
2014-01-03 19:59:00,-5.6,-8.5,30.75,WNW,286,1.0,2.0,87,0.00,,---,0.00,VWS V13.01,2014-01-04 00:59:00,
2014-01-03 20:04:00,-6.0,-9.1,30.75,WNW,286,0.0,2.0,86,0.00,,---,0.00,VWS V13.01,2014-01-04 01:04:00,
2014-01-03 20:09:00,-5.9,-9.0,30.75,WNW,286,0.0,2.0,86,0.00,,---,0.00,VWS V13.01,2014-01-04 01:09:00,
2014-01-03 20:14:00,-5.9,-9.0,30.76,WNW,286,0.0,2.0,86,0.00,,---,0.00,VWS V13.01,2014-01-04 01:14:00,
2014-01-03 20:19:00,-5.8,-8.9,30.75,WNW,286,0.0,2.0,86,0.00,,---,0.00,VWS V13.01,2014-01-04 01:19:00,
2014-01-03 20:24:00,-5.3,-8.2,30.75,WNW,286,0.0,2.0,87,0.00,,---,0.00,VWS V13.01,2014-01-04 01:24:00,
2014-01-03 20:29:00,-6.4,-9.7,30.75,WNW,286,0.0,2.0,85,0.00,,---,0.00,VWS V13.01,2014-01-04 01:29:00,
2014-01-03 20:34:00,-7.0,-10.1,30.75,WNW,286,0.0,2.0,86,0.00,,---,0.00,VWS V13.01,2014-01-04 01:34:00,
2014-01-03 20:39:00,-6.9,-10.0,30.75,WNW,286,0.0,2.0,86,0.00,,---,0.00,VWS V13.01,2014-01-04 01:39:00,
2014-01-03 20:44:00,-7.5,-10.8,30.75,WNW,286,0.0,2.0,85,0.00,,---,0.00,VWS V13.01,2014-01-04 01:44:00,
2014-01-03 20:49:00,-7.2,-10.3,30.74,WNW,286,0.0,2.0,86,0.00,,---,0.00,VWS V13.01,2014-01-04 01:49:00,
2014-01-03 20:54:00,-7.2,-10.3,30.74,WNW,286,0.0,2.0,86,0.00,,---,0.00,VWS V13.01,2014-01-04 01:54:00,
2014-01-03 20:59:00,-7.7,-11.0,30.74,WNW,286,0.0,2.0,85,0.00,,---,0.00,VWS V13.01,2014-01-04 01:59:00,
2014-01-03 21:04:00,-8.0,-11.3,30.75,WNW,286,0.0,0.0,85,0.00,,---,0.00,VWS V13.01,2014-01-04 02:04:00,
2014-01-03 21:09:00,-8.2,-11.5,30.74,WNW,286,0.0,0.0,85,0.00,,---,0.00,VWS V13.01,2014-01-04 02:09:00,
2014-01-03 21:15:00,-7.8,-10.9,30.74,WNW,286,0.0,0.0,86,0.00,,---,0.00,VWS V13.01,2014-01-04 02:15:00,
2014-01-03 21:20:00,-7.2,-10.3,30.73,WNW,286,0.0,0.0,86,0.00,,---,0.00,VWS V13.01,2014-01-04 02:20:00,
2014-01-03 21:25:00,-6.8,-9.6,30.73,WNW,286,0.0,1.0,87,0.00,,---,0.00,VWS V13.01,2014-01-04 02:25:00,
2014-01-03 21:30:00,-6.5,-9.6,30.73,WNW,286,0.0,0.0,86,0.00,,---,0.00,VWS V13.01,2014-01-04 02:30:00,
2014-01-03 21:35:00,-6.6,-9.7,30.73,WNW,286,0.0,0.0,86,0.00,,---,0.00,VWS V13.01,2014-01-04 02:35:00,
2014-01-03 21:40:00,-6.4,-9.5,30.73,WNW,286,0.0,0.0,86,0.00,,---,0.00,VWS V13.01,2014-01-04 02:40:00,
2014-01-03 21:45:00,-5.9,-8.8,30.73,WNW,286,0.0,0.0,87,0.00,,---,0.00,VWS V13.01,2014-01-04 02:45:00,
2014-01-03 21:50:00,-6.4,-9.5,30.73,WNW,286,0.0,0.0,86,0.00,,---,0.00,VWS V13.01,2014-01-04 02:50:00,
2014-01-03 21:55:00,-6.8,-10.1,30.73,WNW,286,0.0,0.0,85,0.00,,---,0.00,VWS V13.01,2014-01-04 02:55:00,
2014-01-03 21:59:00,-7.0,-10.3,30.73,WNW,286,0.0,0.0,85,0.00,,---,0.00,VWS V13.01,2014-01-04 02:59:00,
2014-01-03 22:04:00,-7.1,-10.4,30.73,WNW,286,0.0,0.0,85,0.00,,---,0.00,VWS V13.01,2014-01-04 03:04:00,
2014-01-03 22:09:00,-7.3,-10.6,30.73,WNW,286,0.0,0.0,85,0.00,,---,0.00,VWS V13.01,2014-01-04 03:09:00,
2014-01-03 22:14:00,-7.9,-11.4,30.73,WNW,286,0.0,0.0,84,0.00,,---,0.00,VWS V13.01,2014-01-04 03:14:00,
2014-01-03 22:19:00,-8.0,-11.3,30.73,WNW,286,0.0,0.0,85,0.00,,---,0.00,VWS V13.01,2014-01-04 03:19:00,
2014-01-03 22:24:00,-7.7,-11.0,30.72,WNW,286,1.0,1.0,85,0.00,,---,0.00,VWS V13.01,2014-01-04 03:24:00,
2014-01-03 22:29:00,-8.0,-11.3,30.72,WNW,286,0.0,2.0,85,0.00,,---,0.00,VWS V13.01,2014-01-04 03:29:00,
2014-01-03 22:34:00,-8.2,-11.5,30.72,WNW,286,0.0,0.0,85,0.00,,---,0.00,VWS V13.01,2014-01-04 03:34:00,
2014-01-03 22:39:00,-8.4,-11.7,30.72,WNW,286,0.0,0.0,85,0.00,,---,0.00,VWS V13.01,2014-01-04 03:39:00,
2014-01-03 22:45:00,-8.0,-11.3,30.71,WNW,286,0.0,0.0,85,0.00,,---,0.00,VWS V13.01,2014-01-04 03:45:00,
2014-01-03 22:50:00,-7.6,-10.7,30.71,WNW,286,0.0,0.0,86,0.00,,---,0.00,VWS V13.01,2014-01-04 03:50:00,
2014-01-03 22:55:00,-7.5,-10.6,30.71,WNW,286,0.0,0.0,86,0.00,,---,0.00,VWS V13.01,2014-01-04 03:55:00,
2014-01-03 23:00:00,-7.3,-10.4,30.71,WNW,286,0.0,0.0,86,0.00,,---,0.00,VWS V13.01,2014-01-04 04:00:00,
2014-01-03 23:05:00,-7.5,-10.8,30.71,WNW,286,0.0,0.0,85,0.00,,---,0.00,VWS V13.01,2014-01-04 04:05:00,
2014-01-03 23:10:00,-7.0,-10.1,30.71,WNW,286,0.0,2.0,86,0.00,,---,0.00,VWS V13.01,2014-01-04 04:10:00,
2014-01-03 23:15:00,-6.7,-9.8,30.70,WNW,286,0.0,2.0,86,0.00,,---,0.00,VWS V13.01,2014-01-04 04:15:00,
2014-01-03 23:20:00,-6.7,-9.8,30.70,WNW,286,1.0,2.0,86,0.00,,---,0.00,VWS V13.01,2014-01-04 04:20:00,
2014-01-03 23:26:00,-6.2,-9.3,30.70,WNW,286,0.0,2.0,86,0.00,,---,0.00,VWS V13.01,2014-01-04 04:26:00,
2014-01-03 23:31:00,-5.7,-8.8,30.70,WNW,286,0.0,0.0,86,0.00,,---,0.00,VWS V13.01,2014-01-04 04:31:00,
2014-01-03 23:36:00,-5.3,-8.2,30.70,WNW,286,0.0,0.0,87,0.00,,---,0.00,VWS V13.01,2014-01-04 04:36:00,
2014-01-03 23:41:00,-5.0,-8.1,30.70,WNW,286,1.0,1.0,86,0.00,,---,0.00,VWS V13.01,2014-01-04 04:41:00,
2014-01-03 23:46:00,-4.4,-7.3,30.69,WNW,286,2.0,3.0,87,0.00,,---,0.00,VWS V13.01,2014-01-04 04:46:00,
2014-01-03 23:51:00,-4.1,-7.0,30.68,WNW,286,1.0,3.0,87,0.00,,---,0.00,VWS V13.01,2014-01-04 04:51:00,
2014-01-03 23:57:00,-3.9,-6.8,30.69,WNW,286,0.0,3.0,87,0.00,,---,0.00,VWS V13.01,2014-01-04 04:57:00,